sensor_id;sensor_type;location;lat;lon;timestamp;temperature;humidity
11446;DHT22;5779;64.178;15.432;2022-10-15T00:00:13;7.00;99.90
11446;DHT22;5779;64.178;15.432;2022-10-15T00:03:00;6.90;99.90
11446;DHT22;5779;64.178;15.432;2022-10-15T00:05:47;6.90;99.90
11446;DHT22;5779;64.178;15.432;2022-10-15T00:08:34;6.80;99.90
11446;DHT22;5779;64.178;15.432;2022-10-15T00:11:24;6.80;99.90
11446;DHT22;5779;64.178;15.432;2022-10-15T00:14:11;6.80;99.90
11446;DHT22;5779;64.178;15.432;2022-10-15T00:16:58;6.70;99.90
11446;DHT22;5779;64.178;15.432;2022-10-15T00:19:45;6.70;99.90
11446;DHT22;5779;64.178;15.432;2022-10-15T00:22:31;6.70;99.90
11446;DHT22;5779;64.178;15.432;2022-10-15T00:25:18;6.70;99.90
11446;DHT22;5779;64.178;15.432;2022-10-15T00:28:07;6.70;99.90
11446;DHT22;5779;64.178;15.432;2022-10-15T00:30:59;6.70;99.90
11446;DHT22;5779;64.178;15.432;2022-10-15T00:33:48;6.70;99.90
11446;DHT22;5779;64.178;15.432;2022-10-15T00:36:36;6.70;99.90
11446;DHT22;5779;64.178;15.432;2022-10-15T00:39:22;6.70;99.90
11446;DHT22;5779;64.178;15.432;2022-10-15T00:42:10;6.60;99.90
11446;DHT22;5779;64.178;15.432;2022-10-15T00:44:58;6.60;99.90
11446;DHT22;5779;64.178;15.432;2022-10-15T00:47:47;6.60;99.90
11446;DHT22;5779;64.178;15.432;2022-10-15T00:50:34;6.80;99.90
11446;DHT22;5779;64.178;15.432;2022-10-15T00:53:22;6.60;99.90
11446;DHT22;5779;64.178;15.432;2022-10-15T00:56:09;6.70;99.90
11446;DHT22;5779;64.178;15.432;2022-10-15T00:58:56;6.70;99.90
11446;DHT22;5779;64.178;15.432;2022-10-15T01:01:45;6.70;99.90
11446;DHT22;5779;64.178;15.432;2022-10-15T01:04:32;6.60;99.90
11446;DHT22;5779;64.178;15.432;2022-10-15T01:07:20;6.50;99.90
11446;DHT22;5779;64.178;15.432;2022-10-15T01:10:08;6.30;99.90
11446;DHT22;5779;64.178;15.432;2022-10-15T01:13:02;6.20;99.90
11446;DHT22;5779;64.178;15.432;2022-10-15T01:15:58;6.20;99.90
11446;DHT22;5779;64.178;15.432;2022-10-15T01:18:52;6.20;99.90
11446;DHT22;5779;64.178;15.432;2022-10-15T01:21:43;6.40;99.90
11446;DHT22;5779;64.178;15.432;2022-10-15T01:24:43;6.40;99.90
11446;DHT22;5779;64.178;15.432;2022-10-15T01:27:34;6.30;99.90
11446;DHT22;5779;64.178;15.432;2022-10-15T01:30:29;6.30;99.90
11446;DHT22;5779;64.178;15.432;2022-10-15T01:33:26;6.40;99.90
11446;DHT22;5779;64.178;15.432;2022-10-15T01:36:17;6.40;99.90
11446;DHT22;5779;64.178;15.432;2022-10-15T01:39:09;6.40;99.90
11446;DHT22;5779;64.178;15.432;2022-10-15T01:42:00;6.30;99.90
11446;DHT22;5779;64.178;15.432;2022-10-15T01:44:52;6.30;99.90
11446;DHT22;5779;64.178;15.432;2022-10-15T01:47:46;6.40;99.90
11446;DHT22;5779;64.178;15.432;2022-10-15T01:50:37;6.30;99.90
11446;DHT22;5779;64.178;15.432;2022-10-15T01:53:26;6.30;99.90
11446;DHT22;5779;64.178;15.432;2022-10-15T01:56:17;6.40;99.90
11446;DHT22;5779;64.178;15.432;2022-10-15T01:59:06;6.40;99.90
11446;DHT22;5779;64.178;15.432;2022-10-15T02:01:53;6.30;99.90
11446;DHT22;5779;64.178;15.432;2022-10-15T02:04:42;6.20;99.90
11446;DHT22;5779;64.178;15.432;2022-10-15T02:07:35;6.10;99.90
11446;DHT22;5779;64.178;15.432;2022-10-15T02:10:27;6.10;99.90
11446;DHT22;5779;64.178;15.432;2022-10-15T02:13:24;6.10;99.90
11446;DHT22;5779;64.178;15.432;2022-10-15T02:16:17;6.10;99.90
11446;DHT22;5779;64.178;15.432;2022-10-15T02:19:13;6.10;99.90
11446;DHT22;5779;64.178;15.432;2022-10-15T02:22:06;6.10;99.90
11446;DHT22;5779;64.178;15.432;2022-10-15T02:24:57;6.10;99.90
11446;DHT22;5779;64.178;15.432;2022-10-15T02:27:46;6.00;99.90
11446;DHT22;5779;64.178;15.432;2022-10-15T02:30:34;5.90;99.90
11446;DHT22;5779;64.178;15.432;2022-10-15T02:33:23;6.00;99.90
11446;DHT22;5779;64.178;15.432;2022-10-15T02:36:11;6.00;99.90
11446;DHT22;5779;64.178;15.432;2022-10-15T02:39:00;6.00;99.90
11446;DHT22;5779;64.178;15.432;2022-10-15T02:41:50;5.90;99.90
11446;DHT22;5779;64.178;15.432;2022-10-15T02:44:37;5.80;99.90
11446;DHT22;5779;64.178;15.432;2022-10-15T02:47:24;5.80;99.90
11446;DHT22;5779;64.178;15.432;2022-10-15T02:50:10;5.80;99.90
11446;DHT22;5779;64.178;15.432;2022-10-15T02:52:57;5.80;99.90
11446;DHT22;5779;64.178;15.432;2022-10-15T02:55:46;5.80;99.90
11446;DHT22;5779;64.178;15.432;2022-10-15T02:58:33;5.60;99.90
11446;DHT22;5779;64.178;15.432;2022-10-15T03:01:20;5.60;99.90
11446;DHT22;5779;64.178;15.432;2022-10-15T03:04:07;5.50;99.90
11446;DHT22;5779;64.178;15.432;2022-10-15T03:06:54;5.50;99.90
11446;DHT22;5779;64.178;15.432;2022-10-15T03:09:41;5.40;99.90
11446;DHT22;5779;64.178;15.432;2022-10-15T03:12:29;5.40;99.90
11446;DHT22;5779;64.178;15.432;2022-10-15T03:15:16;5.40;99.90
11446;DHT22;5779;64.178;15.432;2022-10-15T03:18:03;5.50;99.90
11446;DHT22;5779;64.178;15.432;2022-10-15T03:20:54;5.40;99.90
11446;DHT22;5779;64.178;15.432;2022-10-15T03:23:41;5.40;99.90
11446;DHT22;5779;64.178;15.432;2022-10-15T03:26:28;5.30;99.90
11446;DHT22;5779;64.178;15.432;2022-10-15T03:29:16;5.30;99.90
11446;DHT22;5779;64.178;15.432;2022-10-15T03:32:03;5.30;99.90
11446;DHT22;5779;64.178;15.432;2022-10-15T03:34:50;5.20;99.90
11446;DHT22;5779;64.178;15.432;2022-10-15T03:37:37;5.30;99.90
11446;DHT22;5779;64.178;15.432;2022-10-15T03:40:24;5.10;99.90
11446;DHT22;5779;64.178;15.432;2022-10-15T03:43:11;5.20;99.90
11446;DHT22;5779;64.178;15.432;2022-10-15T03:46:02;5.30;99.90
11446;DHT22;5779;64.178;15.432;2022-10-15T03:48:49;5.30;99.90
11446;DHT22;5779;64.178;15.432;2022-10-15T03:51:36;5.30;99.90
11446;DHT22;5779;64.178;15.432;2022-10-15T03:54:22;5.30;99.90
11446;DHT22;5779;64.178;15.432;2022-10-15T03:57:09;5.20;99.90
11446;DHT22;5779;64.178;15.432;2022-10-15T03:59:56;5.30;99.90
11446;DHT22;5779;64.178;15.432;2022-10-15T04:02:45;5.40;99.90
11446;DHT22;5779;64.178;15.432;2022-10-15T04:05:32;5.40;99.90
11446;DHT22;5779;64.178;15.432;2022-10-15T04:08:19;5.40;99.90
11446;DHT22;5779;64.178;15.432;2022-10-15T04:11:06;5.50;99.90
11446;DHT22;5779;64.178;15.432;2022-10-15T04:13:53;5.40;99.90
11446;DHT22;5779;64.178;15.432;2022-10-15T04:16:39;5.40;99.90
11446;DHT22;5779;64.178;15.432;2022-10-15T04:19:28;5.30;99.90
11446;DHT22;5779;64.178;15.432;2022-10-15T04:22:14;5.40;99.90
11446;DHT22;5779;64.178;15.432;2022-10-15T04:25:01;5.50;99.90
11446;DHT22;5779;64.178;15.432;2022-10-15T04:27:49;5.50;99.90
11446;DHT22;5779;64.178;15.432;2022-10-15T04:30:37;5.30;99.90
11446;DHT22;5779;64.178;15.432;2022-10-15T04:33:24;5.30;99.90
11446;DHT22;5779;64.178;15.432;2022-10-15T04:36:13;5.40;99.90
11446;DHT22;5779;64.178;15.432;2022-10-15T04:39:00;5.30;99.90
11446;DHT22;5779;64.178;15.432;2022-10-15T04:41:47;5.20;99.90
11446;DHT22;5779;64.178;15.432;2022-10-15T04:44:34;5.30;99.90
11446;DHT22;5779;64.178;15.432;2022-10-15T04:47:21;5.30;99.90
11446;DHT22;5779;64.178;15.432;2022-10-15T04:50:08;5.30;99.90
11446;DHT22;5779;64.178;15.432;2022-10-15T04:52:58;5.40;99.90
11446;DHT22;5779;64.178;15.432;2022-10-15T04:55:45;5.30;99.90
11446;DHT22;5779;64.178;15.432;2022-10-15T04:58:33;5.30;99.90
11446;DHT22;5779;64.178;15.432;2022-10-15T05:01:20;5.20;99.90
11446;DHT22;5779;64.178;15.432;2022-10-15T05:04:09;5.30;99.90
11446;DHT22;5779;64.178;15.432;2022-10-15T05:06:57;5.30;99.90
11446;DHT22;5779;64.178;15.432;2022-10-15T05:09:45;5.10;99.90
11446;DHT22;5779;64.178;15.432;2022-10-15T05:12:32;5.10;99.90
11446;DHT22;5779;64.178;15.432;2022-10-15T05:15:19;5.20;99.90
11446;DHT22;5779;64.178;15.432;2022-10-15T05:18:06;5.20;99.90
11446;DHT22;5779;64.178;15.432;2022-10-15T05:20:53;5.20;99.90
11446;DHT22;5779;64.178;15.432;2022-10-15T05:23:40;5.20;99.90
11446;DHT22;5779;64.178;15.432;2022-10-15T05:26:30;5.20;99.90
11446;DHT22;5779;64.178;15.432;2022-10-15T05:29:17;5.10;99.90
11446;DHT22;5779;64.178;15.432;2022-10-15T05:32:04;5.00;99.90
11446;DHT22;5779;64.178;15.432;2022-10-15T05:34:51;5.10;99.90
11446;DHT22;5779;64.178;15.432;2022-10-15T05:37:38;5.10;99.90
11446;DHT22;5779;64.178;15.432;2022-10-15T05:40:24;5.20;99.90
11446;DHT22;5779;64.178;15.432;2022-10-15T05:43:13;5.10;99.90
11446;DHT22;5779;64.178;15.432;2022-10-15T05:46:00;5.30;99.90
11446;DHT22;5779;64.178;15.432;2022-10-15T05:48:48;5.10;99.90
11446;DHT22;5779;64.178;15.432;2022-10-15T05:51:35;5.20;99.90
11446;DHT22;5779;64.178;15.432;2022-10-15T05:54:26;5.20;99.90
11446;DHT22;5779;64.178;15.432;2022-10-15T05:57:13;5.20;99.90
11446;DHT22;5779;64.178;15.432;2022-10-15T06:00:01;5.20;99.90
11446;DHT22;5779;64.178;15.432;2022-10-15T06:02:48;5.30;99.90
11446;DHT22;5779;64.178;15.432;2022-10-15T06:05:36;5.20;99.90
11446;DHT22;5779;64.178;15.432;2022-10-15T06:08:23;5.40;99.90
11446;DHT22;5779;64.178;15.432;2022-10-15T06:11:10;5.40;99.90
11446;DHT22;5779;64.178;15.432;2022-10-15T06:13:57;5.30;99.90
11446;DHT22;5779;64.178;15.432;2022-10-15T06:16:46;5.40;99.90
11446;DHT22;5779;64.178;15.432;2022-10-15T06:19:35;5.30;99.90
11446;DHT22;5779;64.178;15.432;2022-10-15T06:22:22;5.30;99.90
11446;DHT22;5779;64.178;15.432;2022-10-15T06:25:09;5.20;99.90
11446;DHT22;5779;64.178;15.432;2022-10-15T06:28:00;5.20;99.90
11446;DHT22;5779;64.178;15.432;2022-10-15T06:30:47;5.30;99.90
11446;DHT22;5779;64.178;15.432;2022-10-15T06:33:35;5.20;99.90
11446;DHT22;5779;64.178;15.432;2022-10-15T06:36:22;5.30;99.90
11446;DHT22;5779;64.178;15.432;2022-10-15T06:39:09;5.30;99.90
11446;DHT22;5779;64.178;15.432;2022-10-15T06:41:56;5.40;99.90
11446;DHT22;5779;64.178;15.432;2022-10-15T06:44:43;5.50;99.90
11446;DHT22;5779;64.178;15.432;2022-10-15T06:47:30;5.40;99.90
11446;DHT22;5779;64.178;15.432;2022-10-15T06:50:18;5.40;99.90
11446;DHT22;5779;64.178;15.432;2022-10-15T06:53:06;5.50;99.90
11446;DHT22;5779;64.178;15.432;2022-10-15T06:55:55;5.60;99.90
11446;DHT22;5779;64.178;15.432;2022-10-15T06:58:43;5.60;99.90
11446;DHT22;5779;64.178;15.432;2022-10-15T07:01:30;5.60;99.90
11446;DHT22;5779;64.178;15.432;2022-10-15T07:04:16;5.50;99.90
11446;DHT22;5779;64.178;15.432;2022-10-15T07:07:05;5.40;99.90
11446;DHT22;5779;64.178;15.432;2022-10-15T07:09:52;5.50;99.90
11446;DHT22;5779;64.178;15.432;2022-10-15T07:12:39;5.40;99.90
11446;DHT22;5779;64.178;15.432;2022-10-15T07:15:26;5.50;99.90
11446;DHT22;5779;64.178;15.432;2022-10-15T07:18:13;5.50;99.90
11446;DHT22;5779;64.178;15.432;2022-10-15T07:21:00;5.60;99.90
11446;DHT22;5779;64.178;15.432;2022-10-15T07:23:55;5.60;99.90
11446;DHT22;5779;64.178;15.432;2022-10-15T07:26:42;5.50;99.90
11446;DHT22;5779;64.178;15.432;2022-10-15T07:29:29;5.60;99.90
11446;DHT22;5779;64.178;15.432;2022-10-15T07:32:16;5.70;99.90
11446;DHT22;5779;64.178;15.432;2022-10-15T07:35:04;5.60;99.90
11446;DHT22;5779;64.178;15.432;2022-10-15T07:37:51;5.60;99.90
11446;DHT22;5779;64.178;15.432;2022-10-15T07:40:39;5.70;99.90
11446;DHT22;5779;64.178;15.432;2022-10-15T07:43:26;5.70;99.90
11446;DHT22;5779;64.178;15.432;2022-10-15T07:46:13;5.70;99.90
11446;DHT22;5779;64.178;15.432;2022-10-15T07:49:00;5.80;99.90
11446;DHT22;5779;64.178;15.432;2022-10-15T07:51:47;5.80;99.90
11446;DHT22;5779;64.178;15.432;2022-10-15T07:54:34;5.80;99.90
11446;DHT22;5779;64.178;15.432;2022-10-15T07:57:23;5.80;99.90
11446;DHT22;5779;64.178;15.432;2022-10-15T08:00:11;5.80;99.90
11446;DHT22;5779;64.178;15.432;2022-10-15T08:02:58;5.80;99.90
11446;DHT22;5779;64.178;15.432;2022-10-15T08:05:44;5.90;99.90
11446;DHT22;5779;64.178;15.432;2022-10-15T08:08:32;5.90;99.90
11446;DHT22;5779;64.178;15.432;2022-10-15T08:11:19;6.00;99.90
11446;DHT22;5779;64.178;15.432;2022-10-15T08:14:08;6.10;99.90
11446;DHT22;5779;64.178;15.432;2022-10-15T08:16:55;6.20;99.90
11446;DHT22;5779;64.178;15.432;2022-10-15T08:19:42;6.00;99.90
11446;DHT22;5779;64.178;15.432;2022-10-15T08:22:29;6.00;99.90
11446;DHT22;5779;64.178;15.432;2022-10-15T08:25:16;5.90;99.90
11446;DHT22;5779;64.178;15.432;2022-10-15T08:28:03;5.70;99.90
11446;DHT22;5779;64.178;15.432;2022-10-15T08:30:51;5.70;99.90
11446;DHT22;5779;64.178;15.432;2022-10-15T08:33:38;5.70;99.90
11446;DHT22;5779;64.178;15.432;2022-10-15T08:36:25;5.90;99.90
11446;DHT22;5779;64.178;15.432;2022-10-15T08:39:12;5.70;99.90
11446;DHT22;5779;64.178;15.432;2022-10-15T08:42:02;5.70;99.90
11446;DHT22;5779;64.178;15.432;2022-10-15T08:44:52;5.70;99.90
11446;DHT22;5779;64.178;15.432;2022-10-15T08:47:45;5.60;99.90
11446;DHT22;5779;64.178;15.432;2022-10-15T08:50:39;5.70;99.90
11446;DHT22;5779;64.178;15.432;2022-10-15T08:53:27;5.70;99.90
11446;DHT22;5779;64.178;15.432;2022-10-15T08:56:18;5.70;99.90
11446;DHT22;5779;64.178;15.432;2022-10-15T08:59:15;5.80;99.90
11446;DHT22;5779;64.178;15.432;2022-10-15T09:02:09;5.80;99.90
11446;DHT22;5779;64.178;15.432;2022-10-15T09:05:16;5.90;99.90
11446;DHT22;5779;64.178;15.432;2022-10-15T09:08:16;5.90;99.90
11446;DHT22;5779;64.178;15.432;2022-10-15T09:11:11;5.90;99.90
11446;DHT22;5779;64.178;15.432;2022-10-15T09:13:59;5.90;99.90
11446;DHT22;5779;64.178;15.432;2022-10-15T09:16:49;5.80;99.90
11446;DHT22;5779;64.178;15.432;2022-10-15T09:19:37;5.80;99.90
11446;DHT22;5779;64.178;15.432;2022-10-15T09:22:27;5.90;99.90
11446;DHT22;5779;64.178;15.432;2022-10-15T09:25:15;6.00;99.90
11446;DHT22;5779;64.178;15.432;2022-10-15T09:28:08;5.90;99.90
11446;DHT22;5779;64.178;15.432;2022-10-15T09:30:57;6.00;99.90
11446;DHT22;5779;64.178;15.432;2022-10-15T09:33:48;6.00;99.90
11446;DHT22;5779;64.178;15.432;2022-10-15T09:36:40;6.00;99.90
11446;DHT22;5779;64.178;15.432;2022-10-15T09:39:39;6.00;99.90
11446;DHT22;5779;64.178;15.432;2022-10-15T09:42:33;5.90;99.90
11446;DHT22;5779;64.178;15.432;2022-10-15T09:45:21;6.00;99.90
11446;DHT22;5779;64.178;15.432;2022-10-15T09:48:16;6.20;99.90
11446;DHT22;5779;64.178;15.432;2022-10-15T09:51:09;6.10;99.90
11446;DHT22;5779;64.178;15.432;2022-10-15T09:54:03;6.20;99.90
11446;DHT22;5779;64.178;15.432;2022-10-15T09:56:55;6.20;99.90
11446;DHT22;5779;64.178;15.432;2022-10-15T09:59:52;6.30;99.90
11446;DHT22;5779;64.178;15.432;2022-10-15T10:02:39;6.30;99.90
11446;DHT22;5779;64.178;15.432;2022-10-15T10:05:28;6.50;99.90
11446;DHT22;5779;64.178;15.432;2022-10-15T10:08:17;6.70;99.90
11446;DHT22;5779;64.178;15.432;2022-10-15T10:11:07;6.80;99.90
11446;DHT22;5779;64.178;15.432;2022-10-15T10:13:57;6.70;99.90
11446;DHT22;5779;64.178;15.432;2022-10-15T10:17:03;6.60;99.90
11446;DHT22;5779;64.178;15.432;2022-10-15T10:20:12;6.50;99.90
11446;DHT22;5779;64.178;15.432;2022-10-15T10:23:01;6.40;99.90
11446;DHT22;5779;64.178;15.432;2022-10-15T10:25:49;6.40;99.90
11446;DHT22;5779;64.178;15.432;2022-10-15T10:28:42;6.50;99.90
11446;DHT22;5779;64.178;15.432;2022-10-15T10:31:33;6.50;99.90
11446;DHT22;5779;64.178;15.432;2022-10-15T10:34:28;6.50;99.90
11446;DHT22;5779;64.178;15.432;2022-10-15T10:37:16;6.40;99.90
11446;DHT22;5779;64.178;15.432;2022-10-15T10:40:04;6.40;99.90
11446;DHT22;5779;64.178;15.432;2022-10-15T10:43:11;6.30;99.90
11446;DHT22;5779;64.178;15.432;2022-10-15T10:45:59;6.20;99.90
11446;DHT22;5779;64.178;15.432;2022-10-15T10:48:49;6.30;99.90
11446;DHT22;5779;64.178;15.432;2022-10-15T10:51:48;6.30;99.90
11446;DHT22;5779;64.178;15.432;2022-10-15T10:54:35;6.10;99.90
11446;DHT22;5779;64.178;15.432;2022-10-15T10:57:28;6.20;99.90
11446;DHT22;5779;64.178;15.432;2022-10-15T11:00:22;6.20;99.90
11446;DHT22;5779;64.178;15.432;2022-10-15T11:03:21;6.20;99.90
11446;DHT22;5779;64.178;15.432;2022-10-15T11:06:36;6.20;99.90
11446;DHT22;5779;64.178;15.432;2022-10-15T11:09:41;6.10;99.90
11446;DHT22;5779;64.178;15.432;2022-10-15T11:12:50;6.20;99.90
11446;DHT22;5779;64.178;15.432;2022-10-15T11:15:46;6.20;99.90
11446;DHT22;5779;64.178;15.432;2022-10-15T11:18:53;6.20;99.90
11446;DHT22;5779;64.178;15.432;2022-10-15T11:21:52;6.30;99.90
11446;DHT22;5779;64.178;15.432;2022-10-15T11:24:46;6.40;99.90
11446;DHT22;5779;64.178;15.432;2022-10-15T11:27:50;6.20;99.90
11446;DHT22;5779;64.178;15.432;2022-10-15T11:30:47;6.30;99.90
11446;DHT22;5779;64.178;15.432;2022-10-15T11:33:56;6.20;99.90
11446;DHT22;5779;64.178;15.432;2022-10-15T11:36:59;6.30;99.90
11446;DHT22;5779;64.178;15.432;2022-10-15T11:39:57;6.30;99.90
11446;DHT22;5779;64.178;15.432;2022-10-15T11:42:54;6.30;99.90
11446;DHT22;5779;64.178;15.432;2022-10-15T11:45:52;6.30;99.90
11446;DHT22;5779;64.178;15.432;2022-10-15T11:48:47;6.30;99.90
11446;DHT22;5779;64.178;15.432;2022-10-15T11:51:55;6.20;99.90
11446;DHT22;5779;64.178;15.432;2022-10-15T11:54:54;6.30;99.90
11446;DHT22;5779;64.178;15.432;2022-10-15T11:57:50;6.20;99.90
11446;DHT22;5779;64.178;15.432;2022-10-15T12:00:40;6.20;99.90
11446;DHT22;5779;64.178;15.432;2022-10-15T12:03:32;6.20;99.90
11446;DHT22;5779;64.178;15.432;2022-10-15T12:06:23;6.30;99.90
11446;DHT22;5779;64.178;15.432;2022-10-15T12:09:18;6.30;99.90
11446;DHT22;5779;64.178;15.432;2022-10-15T12:12:11;6.40;99.90
11446;DHT22;5779;64.178;15.432;2022-10-15T12:15:11;6.50;99.90
11446;DHT22;5779;64.178;15.432;2022-10-15T12:18:07;6.40;99.90
11446;DHT22;5779;64.178;15.432;2022-10-15T12:20:56;6.40;99.90
11446;DHT22;5779;64.178;15.432;2022-10-15T12:23:42;6.40;99.90
11446;DHT22;5779;64.178;15.432;2022-10-15T12:26:32;6.30;99.90
11446;DHT22;5779;64.178;15.432;2022-10-15T12:29:21;6.40;99.90
11446;DHT22;5779;64.178;15.432;2022-10-15T12:32:21;6.50;99.90
11446;DHT22;5779;64.178;15.432;2022-10-15T12:35:20;6.50;99.90
11446;DHT22;5779;64.178;15.432;2022-10-15T12:38:19;6.60;99.90
11446;DHT22;5779;64.178;15.432;2022-10-15T12:41:09;6.60;99.90
11446;DHT22;5779;64.178;15.432;2022-10-15T12:44:06;6.70;99.90
11446;DHT22;5779;64.178;15.432;2022-10-15T12:46:53;6.80;99.90
11446;DHT22;5779;64.178;15.432;2022-10-15T12:49:59;6.90;99.90
11446;DHT22;5779;64.178;15.432;2022-10-15T12:52:58;6.80;99.90
11446;DHT22;5779;64.178;15.432;2022-10-15T12:56:11;6.80;99.90
11446;DHT22;5779;64.178;15.432;2022-10-15T12:58:59;6.90;99.90
11446;DHT22;5779;64.178;15.432;2022-10-15T13:01:51;6.90;99.90
11446;DHT22;5779;64.178;15.432;2022-10-15T13:04:41;6.80;99.90
11446;DHT22;5779;64.178;15.432;2022-10-15T13:07:32;6.70;99.90
11446;DHT22;5779;64.178;15.432;2022-10-15T13:10:27;6.70;99.90
11446;DHT22;5779;64.178;15.432;2022-10-15T13:13:17;6.90;99.90
11446;DHT22;5779;64.178;15.432;2022-10-15T13:16:07;6.80;99.90
11446;DHT22;5779;64.178;15.432;2022-10-15T13:18:57;6.70;99.90
11446;DHT22;5779;64.178;15.432;2022-10-15T13:21:49;6.80;99.90
11446;DHT22;5779;64.178;15.432;2022-10-15T13:24:40;6.90;99.90
11446;DHT22;5779;64.178;15.432;2022-10-15T13:27:30;7.00;99.90
11446;DHT22;5779;64.178;15.432;2022-10-15T13:30:17;6.90;99.90
11446;DHT22;5779;64.178;15.432;2022-10-15T13:33:05;7.00;99.90
11446;DHT22;5779;64.178;15.432;2022-10-15T13:35:53;7.00;99.90
11446;DHT22;5779;64.178;15.432;2022-10-15T13:38:40;7.10;99.90
11446;DHT22;5779;64.178;15.432;2022-10-15T13:41:29;7.20;99.90
11446;DHT22;5779;64.178;15.432;2022-10-15T13:44:21;7.30;99.90
11446;DHT22;5779;64.178;15.432;2022-10-15T13:47:28;7.30;99.90
11446;DHT22;5779;64.178;15.432;2022-10-15T13:50:20;7.30;99.90
11446;DHT22;5779;64.178;15.432;2022-10-15T13:53:18;7.40;99.90
11446;DHT22;5779;64.178;15.432;2022-10-15T13:56:19;7.30;99.90
11446;DHT22;5779;64.178;15.432;2022-10-15T13:59:15;7.30;99.90
11446;DHT22;5779;64.178;15.432;2022-10-15T14:02:02;7.40;99.90
11446;DHT22;5779;64.178;15.432;2022-10-15T14:04:49;7.40;99.90
11446;DHT22;5779;64.178;15.432;2022-10-15T14:07:36;7.50;99.90
11446;DHT22;5779;64.178;15.432;2022-10-15T14:10:25;7.40;99.90
11446;DHT22;5779;64.178;15.432;2022-10-15T14:13:12;7.40;99.90
11446;DHT22;5779;64.178;15.432;2022-10-15T14:16:09;7.40;99.90
11446;DHT22;5779;64.178;15.432;2022-10-15T14:19:06;7.40;99.90
11446;DHT22;5779;64.178;15.432;2022-10-15T14:21:53;7.50;99.90
11446;DHT22;5779;64.178;15.432;2022-10-15T14:24:40;7.50;99.90
11446;DHT22;5779;64.178;15.432;2022-10-15T14:27:29;7.50;99.90
11446;DHT22;5779;64.178;15.432;2022-10-15T14:30:22;7.60;99.90
11446;DHT22;5779;64.178;15.432;2022-10-15T14:33:31;7.70;99.90
11446;DHT22;5779;64.178;15.432;2022-10-15T14:36:24;7.80;99.90
11446;DHT22;5779;64.178;15.432;2022-10-15T14:39:26;7.80;99.90
11446;DHT22;5779;64.178;15.432;2022-10-15T14:42:26;7.80;99.90
11446;DHT22;5779;64.178;15.432;2022-10-15T14:45:22;7.80;99.90
11446;DHT22;5779;64.178;15.432;2022-10-15T14:48:14;7.80;99.90
11446;DHT22;5779;64.178;15.432;2022-10-15T14:51:05;7.70;99.90
11446;DHT22;5779;64.178;15.432;2022-10-15T14:53:52;7.80;99.90
11446;DHT22;5779;64.178;15.432;2022-10-15T14:56:40;7.70;99.90
11446;DHT22;5779;64.178;15.432;2022-10-15T14:59:30;7.70;99.90
11446;DHT22;5779;64.178;15.432;2022-10-15T15:02:19;7.90;99.90
11446;DHT22;5779;64.178;15.432;2022-10-15T15:05:18;7.80;99.90
11446;DHT22;5779;64.178;15.432;2022-10-15T15:08:08;7.80;99.90
11446;DHT22;5779;64.178;15.432;2022-10-15T15:10:56;7.90;99.90
11446;DHT22;5779;64.178;15.432;2022-10-15T15:13:44;7.90;99.90
11446;DHT22;5779;64.178;15.432;2022-10-15T15:16:32;7.90;99.90
11446;DHT22;5779;64.178;15.432;2022-10-15T15:19:20;7.80;99.90
11446;DHT22;5779;64.178;15.432;2022-10-15T15:22:09;7.80;99.90
11446;DHT22;5779;64.178;15.432;2022-10-15T15:24:57;7.80;99.90
11446;DHT22;5779;64.178;15.432;2022-10-15T15:27:45;7.80;99.90
11446;DHT22;5779;64.178;15.432;2022-10-15T15:30:33;7.90;99.90
11446;DHT22;5779;64.178;15.432;2022-10-15T15:33:20;7.90;99.90
11446;DHT22;5779;64.178;15.432;2022-10-15T15:36:12;8.00;99.90
11446;DHT22;5779;64.178;15.432;2022-10-15T15:38:59;8.10;99.90
11446;DHT22;5779;64.178;15.432;2022-10-15T15:41:46;8.10;99.90
11446;DHT22;5779;64.178;15.432;2022-10-15T15:44:33;8.10;99.90
11446;DHT22;5779;64.178;15.432;2022-10-15T15:47:20;8.10;99.90
11446;DHT22;5779;64.178;15.432;2022-10-15T15:50:08;8.00;99.90
11446;DHT22;5779;64.178;15.432;2022-10-15T15:52:56;7.70;99.90
11446;DHT22;5779;64.178;15.432;2022-10-15T15:55:43;6.00;99.90
11446;DHT22;5779;64.178;15.432;2022-10-15T15:58:32;5.10;99.90
11446;DHT22;5779;64.178;15.432;2022-10-15T16:01:19;4.90;99.90
11446;DHT22;5779;64.178;15.432;2022-10-15T16:04:06;4.90;99.90
11446;DHT22;5779;64.178;15.432;2022-10-15T16:06:53;4.80;99.90
11446;DHT22;5779;64.178;15.432;2022-10-15T16:09:41;4.70;99.90
11446;DHT22;5779;64.178;15.432;2022-10-15T16:12:28;4.70;99.90
11446;DHT22;5779;64.178;15.432;2022-10-15T16:15:15;4.70;99.90
11446;DHT22;5779;64.178;15.432;2022-10-15T16:18:03;4.60;99.90
11446;DHT22;5779;64.178;15.432;2022-10-15T16:20:50;4.50;99.90
11446;DHT22;5779;64.178;15.432;2022-10-15T16:23:37;4.40;99.90
11446;DHT22;5779;64.178;15.432;2022-10-15T16:26:26;4.40;99.90
11446;DHT22;5779;64.178;15.432;2022-10-15T16:29:13;4.40;99.90
11446;DHT22;5779;64.178;15.432;2022-10-15T16:32:01;4.20;99.90
11446;DHT22;5779;64.178;15.432;2022-10-15T16:34:48;4.30;99.90
11446;DHT22;5779;64.178;15.432;2022-10-15T16:37:35;4.20;99.90
11446;DHT22;5779;64.178;15.432;2022-10-15T16:40:22;4.20;99.90
11446;DHT22;5779;64.178;15.432;2022-10-15T16:43:11;4.10;99.90
11446;DHT22;5779;64.178;15.432;2022-10-15T16:45:58;4.10;99.90
11446;DHT22;5779;64.178;15.432;2022-10-15T16:48:51;4.10;99.90
11446;DHT22;5779;64.178;15.432;2022-10-15T16:51:38;4.10;99.90
11446;DHT22;5779;64.178;15.432;2022-10-15T16:54:25;4.10;99.90
11446;DHT22;5779;64.178;15.432;2022-10-15T16:57:12;4.10;99.90
11446;DHT22;5779;64.178;15.432;2022-10-15T17:00:00;4.10;99.90
11446;DHT22;5779;64.178;15.432;2022-10-15T17:02:48;4.10;99.90
11446;DHT22;5779;64.178;15.432;2022-10-15T17:05:34;4.20;99.90
11446;DHT22;5779;64.178;15.432;2022-10-15T17:08:21;4.10;99.90
11446;DHT22;5779;64.178;15.432;2022-10-15T17:11:09;4.10;99.90
11446;DHT22;5779;64.178;15.432;2022-10-15T17:13:57;4.10;99.90
11446;DHT22;5779;64.178;15.432;2022-10-15T17:16:48;4.10;99.90
11446;DHT22;5779;64.178;15.432;2022-10-15T17:19:35;4.00;99.90
11446;DHT22;5779;64.178;15.432;2022-10-15T17:22:22;4.00;99.90
11446;DHT22;5779;64.178;15.432;2022-10-15T17:25:10;3.90;99.90
11446;DHT22;5779;64.178;15.432;2022-10-15T17:27:57;3.90;99.90
11446;DHT22;5779;64.178;15.432;2022-10-15T17:30:43;3.90;99.90
11446;DHT22;5779;64.178;15.432;2022-10-15T17:33:32;3.80;99.90
11446;DHT22;5779;64.178;15.432;2022-10-15T17:36:21;3.80;99.90
11446;DHT22;5779;64.178;15.432;2022-10-15T17:39:09;3.80;99.90
11446;DHT22;5779;64.178;15.432;2022-10-15T17:41:56;3.90;99.90
11446;DHT22;5779;64.178;15.432;2022-10-15T17:44:43;3.90;99.90
11446;DHT22;5779;64.178;15.432;2022-10-15T17:47:30;3.90;99.90
11446;DHT22;5779;64.178;15.432;2022-10-15T17:50:18;3.90;99.90
11446;DHT22;5779;64.178;15.432;2022-10-15T17:53:05;3.90;99.90
11446;DHT22;5779;64.178;15.432;2022-10-15T17:55:52;3.90;99.90
11446;DHT22;5779;64.178;15.432;2022-10-15T17:58:39;3.90;99.90
11446;DHT22;5779;64.178;15.432;2022-10-15T18:01:28;4.00;99.90
11446;DHT22;5779;64.178;15.432;2022-10-15T18:04:15;4.00;99.90
11446;DHT22;5779;64.178;15.432;2022-10-15T18:07:03;4.10;99.90
11446;DHT22;5779;64.178;15.432;2022-10-15T18:09:50;4.20;99.90